sensor_id;sensor_type;location;lat;lon;timestamp;temperature;humidity
29453;DHT22;16424;50.956;5.320;2022-11-11T00:00:50;10.70;99.90
29453;DHT22;16424;50.956;5.320;2022-11-11T00:03:16;10.70;99.90
29453;DHT22;16424;50.956;5.320;2022-11-11T00:05:42;10.60;99.90
29453;DHT22;16424;50.956;5.320;2022-11-11T00:08:07;10.50;99.90
29453;DHT22;16424;50.956;5.320;2022-11-11T00:10:33;10.50;99.90
29453;DHT22;16424;50.956;5.320;2022-11-11T00:13:00;10.40;99.90
29453;DHT22;16424;50.956;5.320;2022-11-11T00:15:29;10.40;99.90
29453;DHT22;16424;50.956;5.320;2022-11-11T00:17:55;10.40;99.90
29453;DHT22;16424;50.956;5.320;2022-11-11T00:20:40;10.30;99.90
29453;DHT22;16424;50.956;5.320;2022-11-11T00:23:26;10.20;99.90
29453;DHT22;16424;50.956;5.320;2022-11-11T00:26:13;10.30;99.90
29453;DHT22;16424;50.956;5.320;2022-11-11T00:28:39;10.30;99.90
29453;DHT22;16424;50.956;5.320;2022-11-11T00:31:07;10.40;99.90
29453;DHT22;16424;50.956;5.320;2022-11-11T00:33:33;10.30;99.90
29453;DHT22;16424;50.956;5.320;2022-11-11T00:36:00;10.30;99.90
29453;DHT22;16424;50.956;5.320;2022-11-11T00:38:26;10.30;99.90
29453;DHT22;16424;50.956;5.320;2022-11-11T00:41:18;10.10;99.90
29453;DHT22;16424;50.956;5.320;2022-11-11T00:43:45;10.20;99.90
29453;DHT22;16424;50.956;5.320;2022-11-11T00:46:12;10.30;99.90
29453;DHT22;16424;50.956;5.320;2022-11-11T00:48:56;10.20;99.90
29453;DHT22;16424;50.956;5.320;2022-11-11T00:51:41;10.20;99.90
29453;DHT22;16424;50.956;5.320;2022-11-11T00:54:07;10.20;99.90
29453;DHT22;16424;50.956;5.320;2022-11-11T00:56:34;10.20;99.90
29453;DHT22;16424;50.956;5.320;2022-11-11T00:59:04;10.20;99.90
29453;DHT22;16424;50.956;5.320;2022-11-11T01:01:30;10.20;99.90
29453;DHT22;16424;50.956;5.320;2022-11-11T01:03:57;10.10;99.90
29453;DHT22;16424;50.956;5.320;2022-11-11T01:06:23;10.10;99.90
29453;DHT22;16424;50.956;5.320;2022-11-11T01:08:48;10.10;99.90
29453;DHT22;16424;50.956;5.320;2022-11-11T01:11:20;10.20;99.90
29453;DHT22;16424;50.956;5.320;2022-11-11T01:13:46;10.20;99.90
29453;DHT22;16424;50.956;5.320;2022-11-11T01:16:15;10.10;99.90
29453;DHT22;16424;50.956;5.320;2022-11-11T01:18:41;10.10;99.90
29453;DHT22;16424;50.956;5.320;2022-11-11T01:21:11;10.10;99.90
29453;DHT22;16424;50.956;5.320;2022-11-11T01:23:39;10.00;99.90
29453;DHT22;16424;50.956;5.320;2022-11-11T01:26:09;9.80;99.90
29453;DHT22;16424;50.956;5.320;2022-11-11T01:28:36;9.90;99.90
29453;DHT22;16424;50.956;5.320;2022-11-11T01:31:04;10.00;99.90
29453;DHT22;16424;50.956;5.320;2022-11-11T01:33:30;10.00;99.90
29453;DHT22;16424;50.956;5.320;2022-11-11T01:36:04;9.90;99.90
29453;DHT22;16424;50.956;5.320;2022-11-11T01:38:30;9.90;99.90
29453;DHT22;16424;50.956;5.320;2022-11-11T01:40:55;9.90;99.90
29453;DHT22;16424;50.956;5.320;2022-11-11T01:43:23;9.90;99.90
29453;DHT22;16424;50.956;5.320;2022-11-11T01:48:25;10.00;99.90
29453;DHT22;16424;50.956;5.320;2022-11-11T01:53:55;9.80;99.90
29453;DHT22;16424;50.956;5.320;2022-11-11T01:56:23;9.90;99.90
29453;DHT22;16424;50.956;5.320;2022-11-11T01:58:51;9.80;99.90
29453;DHT22;16424;50.956;5.320;2022-11-11T02:01:18;9.80;99.90
29453;DHT22;16424;50.956;5.320;2022-11-11T02:03:45;9.90;99.90
29453;DHT22;16424;50.956;5.320;2022-11-11T02:06:32;10.00;99.90
29453;DHT22;16424;50.956;5.320;2022-11-11T02:08:59;9.90;99.90
29453;DHT22;16424;50.956;5.320;2022-11-11T02:11:25;10.10;99.90
29453;DHT22;16424;50.956;5.320;2022-11-11T02:14:10;10.00;99.90
29453;DHT22;16424;50.956;5.320;2022-11-11T02:16:55;9.90;99.90
29453;DHT22;16424;50.956;5.320;2022-11-11T02:19:30;9.90;99.90
29453;DHT22;16424;50.956;5.320;2022-11-11T02:22:00;9.90;99.90
29453;DHT22;16424;50.956;5.320;2022-11-11T02:24:27;9.80;99.90
29453;DHT22;16424;50.956;5.320;2022-11-11T02:26:54;9.80;99.90
29453;DHT22;16424;50.956;5.320;2022-11-11T02:29:21;9.90;99.90
29453;DHT22;16424;50.956;5.320;2022-11-11T02:31:47;9.80;99.90
29453;DHT22;16424;50.956;5.320;2022-11-11T02:34:13;9.80;99.90
29453;DHT22;16424;50.956;5.320;2022-11-11T02:36:39;9.80;99.90
29453;DHT22;16424;50.956;5.320;2022-11-11T02:39:06;9.80;99.90
29453;DHT22;16424;50.956;5.320;2022-11-11T02:41:31;9.80;99.90
29453;DHT22;16424;50.956;5.320;2022-11-11T02:44:16;9.80;99.90
29453;DHT22;16424;50.956;5.320;2022-11-11T02:46:41;9.70;99.90
29453;DHT22;16424;50.956;5.320;2022-11-11T02:49:07;9.70;99.90
29453;DHT22;16424;50.956;5.320;2022-11-11T02:51:35;9.60;99.90
29453;DHT22;16424;50.956;5.320;2022-11-11T02:54:01;9.50;99.90
29453;DHT22;16424;50.956;5.320;2022-11-11T02:56:27;9.40;99.90
29453;DHT22;16424;50.956;5.320;2022-11-11T02:59:11;9.30;99.90
29453;DHT22;16424;50.956;5.320;2022-11-11T03:01:36;9.20;99.90
29453;DHT22;16424;50.956;5.320;2022-11-11T03:04:02;9.20;99.90
29453;DHT22;16424;50.956;5.320;2022-11-11T03:06:28;9.10;99.90
29453;DHT22;16424;50.956;5.320;2022-11-11T03:08:57;9.10;99.90
29453;DHT22;16424;50.956;5.320;2022-11-11T03:11:23;9.10;99.90
29453;DHT22;16424;50.956;5.320;2022-11-11T03:13:58;9.10;99.90
29453;DHT22;16424;50.956;5.320;2022-11-11T03:16:25;9.00;99.90
29453;DHT22;16424;50.956;5.320;2022-11-11T03:19:11;9.10;99.90
29453;DHT22;16424;50.956;5.320;2022-11-11T03:21:37;9.10;99.90
29453;DHT22;16424;50.956;5.320;2022-11-11T03:24:04;9.20;99.90
29453;DHT22;16424;50.956;5.320;2022-11-11T03:26:30;9.20;99.90
29453;DHT22;16424;50.956;5.320;2022-11-11T03:28:56;9.20;99.90
29453;DHT22;16424;50.956;5.320;2022-11-11T03:31:21;9.20;99.90
29453;DHT22;16424;50.956;5.320;2022-11-11T03:33:47;9.20;99.90
29453;DHT22;16424;50.956;5.320;2022-11-11T03:36:13;9.20;99.90
29453;DHT22;16424;50.956;5.320;2022-11-11T03:38:38;9.10;99.90
29453;DHT22;16424;50.956;5.320;2022-11-11T03:41:04;9.10;99.90
29453;DHT22;16424;50.956;5.320;2022-11-11T03:43:32;9.00;99.90
29453;DHT22;16424;50.956;5.320;2022-11-11T03:46:01;9.10;99.90
29453;DHT22;16424;50.956;5.320;2022-11-11T03:48:29;8.90;99.90
29453;DHT22;16424;50.956;5.320;2022-11-11T03:50:54;8.80;99.90
29453;DHT22;16424;50.956;5.320;2022-11-11T03:53:20;8.80;99.90
29453;DHT22;16424;50.956;5.320;2022-11-11T03:55:47;8.60;99.90
29453;DHT22;16424;50.956;5.320;2022-11-11T03:58:14;8.50;99.90
29453;DHT22;16424;50.956;5.320;2022-11-11T04:00:40;8.40;99.90
29453;DHT22;16424;50.956;5.320;2022-11-11T04:03:07;8.40;99.90
29453;DHT22;16424;50.956;5.320;2022-11-11T04:05:53;8.40;99.90
29453;DHT22;16424;50.956;5.320;2022-11-11T04:08:37;8.40;99.90
29453;DHT22;16424;50.956;5.320;2022-11-11T04:11:30;8.40;99.90
29453;DHT22;16424;50.956;5.320;2022-11-11T04:14:00;8.50;99.90
29453;DHT22;16424;50.956;5.320;2022-11-11T04:16:46;8.50;99.90
29453;DHT22;16424;50.956;5.320;2022-11-11T04:19:12;8.50;99.90
29453;DHT22;16424;50.956;5.320;2022-11-11T04:21:56;8.50;99.90
29453;DHT22;16424;50.956;5.320;2022-11-11T04:24:22;8.60;99.90
29453;DHT22;16424;50.956;5.320;2022-11-11T04:27:14;8.70;99.90
29453;DHT22;16424;50.956;5.320;2022-11-11T04:29:40;8.70;99.90
29453;DHT22;16424;50.956;5.320;2022-11-11T04:32:10;8.80;99.90
29453;DHT22;16424;50.956;5.320;2022-11-11T04:35:00;8.70;99.90
29453;DHT22;16424;50.956;5.320;2022-11-11T04:37:28;8.70;99.90
29453;DHT22;16424;50.956;5.320;2022-11-11T04:39:54;8.70;99.90
29453;DHT22;16424;50.956;5.320;2022-11-11T04:42:39;8.50;99.90
29453;DHT22;16424;50.956;5.320;2022-11-11T04:45:06;8.40;99.90
29453;DHT22;16424;50.956;5.320;2022-11-11T04:50:19;8.20;99.90
29453;DHT22;16424;50.956;5.320;2022-11-11T04:52:45;8.40;99.90
29453;DHT22;16424;50.956;5.320;2022-11-11T04:55:11;8.20;99.90
29453;DHT22;16424;50.956;5.320;2022-11-11T04:57:55;8.20;99.90
29453;DHT22;16424;50.956;5.320;2022-11-11T05:00:21;8.20;99.90
29453;DHT22;16424;50.956;5.320;2022-11-11T05:02:46;8.20;99.90
29453;DHT22;16424;50.956;5.320;2022-11-11T05:05:31;8.20;99.90
29453;DHT22;16424;50.956;5.320;2022-11-11T05:08:15;8.30;99.90
29453;DHT22;16424;50.956;5.320;2022-11-11T05:10:59;8.20;99.90
29453;DHT22;16424;50.956;5.320;2022-11-11T05:13:25;8.10;99.90
29453;DHT22;16424;50.956;5.320;2022-11-11T05:16:15;8.00;99.90
29453;DHT22;16424;50.956;5.320;2022-11-11T05:19:01;7.90;99.90
29453;DHT22;16424;50.956;5.320;2022-11-11T05:21:45;7.80;99.90
29453;DHT22;16424;50.956;5.320;2022-11-11T05:24:11;7.70;99.90
29453;DHT22;16424;50.956;5.320;2022-11-11T05:26:55;7.70;99.90
29453;DHT22;16424;50.956;5.320;2022-11-11T05:29:20;7.70;99.90
29453;DHT22;16424;50.956;5.320;2022-11-11T05:31:46;7.70;99.90
29453;DHT22;16424;50.956;5.320;2022-11-11T05:34:11;7.70;99.90
29453;DHT22;16424;50.956;5.320;2022-11-11T05:36:37;7.70;99.90
29453;DHT22;16424;50.956;5.320;2022-11-11T05:39:03;7.80;99.90
29453;DHT22;16424;50.956;5.320;2022-11-11T05:41:28;7.70;99.90
29453;DHT22;16424;50.956;5.320;2022-11-11T05:43:56;7.80;99.90
29453;DHT22;16424;50.956;5.320;2022-11-11T05:46:22;7.80;99.90
29453;DHT22;16424;50.956;5.320;2022-11-11T05:48:48;7.80;99.90
29453;DHT22;16424;50.956;5.320;2022-11-11T05:51:32;7.80;99.90
29453;DHT22;16424;50.956;5.320;2022-11-11T05:53:58;7.70;99.90
29453;DHT22;16424;50.956;5.320;2022-11-11T05:56:23;7.70;99.90
29453;DHT22;16424;50.956;5.320;2022-11-11T05:58:49;7.60;99.90
29453;DHT22;16424;50.956;5.320;2022-11-11T06:01:15;7.50;99.90
29453;DHT22;16424;50.956;5.320;2022-11-11T06:03:40;7.50;99.90
29453;DHT22;16424;50.956;5.320;2022-11-11T06:06:06;7.40;99.90
29453;DHT22;16424;50.956;5.320;2022-11-11T06:08:32;7.30;99.90
29453;DHT22;16424;50.956;5.320;2022-11-11T06:10:57;7.30;99.90
29453;DHT22;16424;50.956;5.320;2022-11-11T06:13:23;7.30;99.90
29453;DHT22;16424;50.956;5.320;2022-11-11T06:15:48;7.30;99.90
29453;DHT22;16424;50.956;5.320;2022-11-11T06:18:14;7.30;99.90
29453;DHT22;16424;50.956;5.320;2022-11-11T06:20:40;7.30;99.90
29453;DHT22;16424;50.956;5.320;2022-11-11T06:23:05;7.30;99.90
29453;DHT22;16424;50.956;5.320;2022-11-11T06:25:32;7.40;99.90
29453;DHT22;16424;50.956;5.320;2022-11-11T06:28:17;7.40;99.90
29453;DHT22;16424;50.956;5.320;2022-11-11T06:30:44;7.40;99.90
29453;DHT22;16424;50.956;5.320;2022-11-11T06:33:10;7.40;99.90
29453;DHT22;16424;50.956;5.320;2022-11-11T06:35:37;7.30;99.90
29453;DHT22;16424;50.956;5.320;2022-11-11T06:38:04;7.20;99.90
29453;DHT22;16424;50.956;5.320;2022-11-11T06:40:30;7.10;99.90
29453;DHT22;16424;50.956;5.320;2022-11-11T06:42:59;7.10;99.90
29453;DHT22;16424;50.956;5.320;2022-11-11T06:45:26;7.10;99.90
29453;DHT22;16424;50.956;5.320;2022-11-11T06:47:52;7.10;99.90
29453;DHT22;16424;50.956;5.320;2022-11-11T06:50:18;7.10;99.90
29453;DHT22;16424;50.956;5.320;2022-11-11T06:52:44;7.10;99.90
29453;DHT22;16424;50.956;5.320;2022-11-11T06:55:10;7.10;99.90
29453;DHT22;16424;50.956;5.320;2022-11-11T06:57:36;7.10;99.90
29453;DHT22;16424;50.956;5.320;2022-11-11T07:00:03;7.10;99.90
29453;DHT22;16424;50.956;5.320;2022-11-11T07:02:29;7.10;99.90
29453;DHT22;16424;50.956;5.320;2022-11-11T07:04:55;7.00;99.90
29453;DHT22;16424;50.956;5.320;2022-11-11T07:07:20;7.00;99.90
29453;DHT22;16424;50.956;5.320;2022-11-11T07:09:46;7.10;99.90
29453;DHT22;16424;50.956;5.320;2022-11-11T07:12:12;7.00;99.90
29453;DHT22;16424;50.956;5.320;2022-11-11T07:14:37;7.10;99.90
29453;DHT22;16424;50.956;5.320;2022-11-11T07:17:03;7.10;99.90
29453;DHT22;16424;50.956;5.320;2022-11-11T07:19:29;7.20;99.90
29453;DHT22;16424;50.956;5.320;2022-11-11T07:21:55;7.30;99.90
29453;DHT22;16424;50.956;5.320;2022-11-11T07:24:20;7.50;99.90
29453;DHT22;16424;50.956;5.320;2022-11-11T07:26:46;7.60;99.90
29453;DHT22;16424;50.956;5.320;2022-11-11T07:29:12;7.60;99.90
29453;DHT22;16424;50.956;5.320;2022-11-11T07:31:40;7.60;99.90
29453;DHT22;16424;50.956;5.320;2022-11-11T07:34:06;7.70;99.90
29453;DHT22;16424;50.956;5.320;2022-11-11T07:36:31;7.50;99.90
29453;DHT22;16424;50.956;5.320;2022-11-11T07:38:57;7.50;99.90
29453;DHT22;16424;50.956;5.320;2022-11-11T07:41:23;7.50;99.90
29453;DHT22;16424;50.956;5.320;2022-11-11T07:43:48;7.50;99.90
29453;DHT22;16424;50.956;5.320;2022-11-11T07:46:14;7.60;99.90
29453;DHT22;16424;50.956;5.320;2022-11-11T07:48:40;7.70;99.90
29453;DHT22;16424;50.956;5.320;2022-11-11T07:51:05;7.90;99.90
29453;DHT22;16424;50.956;5.320;2022-11-11T07:53:31;8.20;99.90
29453;DHT22;16424;50.956;5.320;2022-11-11T07:55:57;8.50;99.90
29453;DHT22;16424;50.956;5.320;2022-11-11T07:58:22;8.80;99.90
29453;DHT22;16424;50.956;5.320;2022-11-11T08:00:48;9.20;99.90
29453;DHT22;16424;50.956;5.320;2022-11-11T08:03:13;9.50;99.90
29453;DHT22;16424;50.956;5.320;2022-11-11T08:05:39;9.70;99.90
29453;DHT22;16424;50.956;5.320;2022-11-11T08:08:06;10.00;99.90
29453;DHT22;16424;50.956;5.320;2022-11-11T08:10:33;10.20;99.90
29453;DHT22;16424;50.956;5.320;2022-11-11T08:12:58;10.30;99.90
29453;DHT22;16424;50.956;5.320;2022-11-11T08:15:43;10.50;99.90
29453;DHT22;16424;50.956;5.320;2022-11-11T08:18:08;10.60;99.90
29453;DHT22;16424;50.956;5.320;2022-11-11T08:20:34;10.70;99.90
29453;DHT22;16424;50.956;5.320;2022-11-11T08:23:01;10.90;99.90
29453;DHT22;16424;50.956;5.320;2022-11-11T08:25:29;11.10;99.90
29453;DHT22;16424;50.956;5.320;2022-11-11T08:27:59;11.30;99.90
29453;DHT22;16424;50.956;5.320;2022-11-11T08:30:25;11.50;99.90
29453;DHT22;16424;50.956;5.320;2022-11-11T08:33:00;11.80;99.90
29453;DHT22;16424;50.956;5.320;2022-11-11T08:35:27;12.20;99.90
29453;DHT22;16424;50.956;5.320;2022-11-11T08:37:53;12.60;99.90
29453;DHT22;16424;50.956;5.320;2022-11-11T08:40:19;12.90;99.90
29453;DHT22;16424;50.956;5.320;2022-11-11T08:42:45;13.10;99.90
29453;DHT22;16424;50.956;5.320;2022-11-11T08:45:11;13.20;99.90
29453;DHT22;16424;50.956;5.320;2022-11-11T08:47:36;13.50;99.90
29453;DHT22;16424;50.956;5.320;2022-11-11T08:50:03;13.90;99.90
29453;DHT22;16424;50.956;5.320;2022-11-11T08:52:29;14.20;99.90
29453;DHT22;16424;50.956;5.320;2022-11-11T08:54:55;14.30;99.90
29453;DHT22;16424;50.956;5.320;2022-11-11T08:57:20;14.20;99.90
29453;DHT22;16424;50.956;5.320;2022-11-11T08:59:46;14.40;99.90
29453;DHT22;16424;50.956;5.320;2022-11-11T09:02:13;13.90;99.90
29453;DHT22;16424;50.956;5.320;2022-11-11T09:04:39;13.80;99.90
29453;DHT22;16424;50.956;5.320;2022-11-11T09:07:09;13.90;99.90
29453;DHT22;16424;50.956;5.320;2022-11-11T09:09:35;13.60;99.90
29453;DHT22;16424;50.956;5.320;2022-11-11T09:12:01;13.40;99.90
29453;DHT22;16424;50.956;5.320;2022-11-11T09:14:27;13.50;99.90
29453;DHT22;16424;50.956;5.320;2022-11-11T09:16:52;13.70;99.90
29453;DHT22;16424;50.956;5.320;2022-11-11T09:19:18;13.60;99.90
29453;DHT22;16424;50.956;5.320;2022-11-11T09:21:44;13.60;99.90
29453;DHT22;16424;50.956;5.320;2022-11-11T09:24:09;13.70;99.90
29453;DHT22;16424;50.956;5.320;2022-11-11T09:26:35;13.80;99.90
29453;DHT22;16424;50.956;5.320;2022-11-11T09:29:01;13.80;99.90
29453;DHT22;16424;50.956;5.320;2022-11-11T09:31:26;14.20;99.90
29453;DHT22;16424;50.956;5.320;2022-11-11T09:33:52;13.80;99.90
29453;DHT22;16424;50.956;5.320;2022-11-11T09:36:18;13.40;99.90
29453;DHT22;16424;50.956;5.320;2022-11-11T09:38:45;13.00;99.90
29453;DHT22;16424;50.956;5.320;2022-11-11T09:47:09;13.00;99.90
29453;DHT22;16424;50.956;5.320;2022-11-11T09:52:24;13.40;99.90
29453;DHT22;16424;50.956;5.320;2022-11-11T09:55:19;13.60;99.90
29453;DHT22;16424;50.956;5.320;2022-11-11T09:58:00;13.40;99.90
29453;DHT22;16424;50.956;5.320;2022-11-11T10:00:32;13.40;99.90
29453;DHT22;16424;50.956;5.320;2022-11-11T10:06:06;13.30;99.90
29453;DHT22;16424;50.956;5.320;2022-11-11T10:14:18;13.70;99.90
29453;DHT22;16424;50.956;5.320;2022-11-11T10:21:57;13.90;99.90
29453;DHT22;16424;50.956;5.320;2022-11-11T10:24:34;14.00;99.90
29453;DHT22;16424;50.956;5.320;2022-11-11T10:27:06;14.00;99.90
29453;DHT22;16424;50.956;5.320;2022-11-11T10:29:42;14.00;99.90
29453;DHT22;16424;50.956;5.320;2022-11-11T10:32:24;13.90;99.90
29453;DHT22;16424;50.956;5.320;2022-11-11T10:34:51;14.00;99.90
29453;DHT22;16424;50.956;5.320;2022-11-11T10:37:21;14.10;99.90
29453;DHT22;16424;50.956;5.320;2022-11-11T10:42:25;14.50;99.90
29453;DHT22;16424;50.956;5.320;2022-11-11T10:44:57;14.50;99.90
29453;DHT22;16424;50.956;5.320;2022-11-11T10:47:44;14.80;99.90
29453;DHT22;16424;50.956;5.320;2022-11-11T10:55:58;14.50;99.90
29453;DHT22;16424;50.956;5.320;2022-11-11T10:58:42;14.80;99.90
29453;DHT22;16424;50.956;5.320;2022-11-11T11:01:12;14.90;99.90
29453;DHT22;16424;50.956;5.320;2022-11-11T11:03:56;15.00;99.90
29453;DHT22;16424;50.956;5.320;2022-11-11T11:06:29;15.30;99.90
29453;DHT22;16424;50.956;5.320;2022-11-11T11:09:29;15.40;99.90
29453;DHT22;16424;50.956;5.320;2022-11-11T11:12:14;15.50;99.90
29453;DHT22;16424;50.956;5.320;2022-11-11T11:14:46;15.80;99.90
29453;DHT22;16424;50.956;5.320;2022-11-11T11:17:25;16.10;99.90
29453;DHT22;16424;50.956;5.320;2022-11-11T11:20:13;16.30;99.90
29453;DHT22;16424;50.956;5.320;2022-11-11T11:22:51;16.60;99.90
29453;DHT22;16424;50.956;5.320;2022-11-11T11:25:18;16.60;99.90
29453;DHT22;16424;50.956;5.320;2022-11-11T11:27:45;16.70;99.90
29453;DHT22;16424;50.956;5.320;2022-11-11T11:30:29;16.70;99.90
29453;DHT22;16424;50.956;5.320;2022-11-11T11:32:57;16.70;99.90
29453;DHT22;16424;50.956;5.320;2022-11-11T11:37:58;16.40;99.90
29453;DHT22;16424;50.956;5.320;2022-11-11T11:40:23;16.40;99.90
29453;DHT22;16424;50.956;5.320;2022-11-11T11:42:49;16.40;99.90
29453;DHT22;16424;50.956;5.320;2022-11-11T11:50:52;16.50;99.90
29453;DHT22;16424;50.956;5.320;2022-11-11T11:53:40;16.80;99.90
29453;DHT22;16424;50.956;5.320;2022-11-11T11:56:17;16.70;99.90
29453;DHT22;16424;50.956;5.320;2022-11-11T11:59:08;16.40;99.90
29453;DHT22;16424;50.956;5.320;2022-11-11T12:01:41;16.40;99.90
29453;DHT22;16424;50.956;5.320;2022-11-11T12:09:45;17.00;99.90
29453;DHT22;16424;50.956;5.320;2022-11-11T12:17:49;17.30;99.90
29453;DHT22;16424;50.956;5.320;2022-11-11T12:20:27;17.10;99.90
29453;DHT22;16424;50.956;5.320;2022-11-11T12:26:00;16.70;99.90
29453;DHT22;16424;50.956;5.320;2022-11-11T12:37:20;16.70;99.90
29453;DHT22;16424;50.956;5.320;2022-11-11T12:45:47;16.40;99.90
29453;DHT22;16424;50.956;5.320;2022-11-11T12:54:19;16.30;99.90
29453;DHT22;16424;50.956;5.320;2022-11-11T12:59:23;16.40;99.90
29453;DHT22;16424;50.956;5.320;2022-11-11T13:15:25;17.40;99.90
29453;DHT22;16424;50.956;5.320;2022-11-11T13:17:51;17.30;99.90
29453;DHT22;16424;50.956;5.320;2022-11-11T13:20:28;17.20;99.90
29453;DHT22;16424;50.956;5.320;2022-11-11T13:23:00;17.30;99.90
29453;DHT22;16424;50.956;5.320;2022-11-11T13:25:29;17.30;99.90
29453;DHT22;16424;50.956;5.320;2022-11-11T13:28:01;17.10;99.90
29453;DHT22;16424;50.956;5.320;2022-11-11T13:30:56;17.00;99.90
29453;DHT22;16424;50.956;5.320;2022-11-11T13:33:34;17.10;99.90
29453;DHT22;16424;50.956;5.320;2022-11-11T13:36:02;17.00;99.90
29453;DHT22;16424;50.956;5.320;2022-11-11T13:38:36;16.80;99.90
29453;DHT22;16424;50.956;5.320;2022-11-11T13:41:05;16.80;99.90
29453;DHT22;16424;50.956;5.320;2022-11-11T13:46:05;17.20;99.90
29453;DHT22;16424;50.956;5.320;2022-11-11T13:48:37;17.20;99.90
29453;DHT22;16424;50.956;5.320;2022-11-11T13:51:38;17.30;99.90
29453;DHT22;16424;50.956;5.320;2022-11-11T13:54:25;17.00;99.90
29453;DHT22;16424;50.956;5.320;2022-11-11T13:56:52;17.20;99.90
29453;DHT22;16424;50.956;5.320;2022-11-11T13:59:28;17.20;99.90
29453;DHT22;16424;50.956;5.320;2022-11-11T14:12:51;17.00;99.90
29453;DHT22;16424;50.956;5.320;2022-11-11T14:15:41;17.00;99.90
29453;DHT22;16424;50.956;5.320;2022-11-11T14:18:37;17.00;99.90
29453;DHT22;16424;50.956;5.320;2022-11-11T14:21:03;17.10;99.90
29453;DHT22;16424;50.956;5.320;2022-11-11T14:23:41;17.00;99.90
29453;DHT22;16424;50.956;5.320;2022-11-11T14:33:54;16.60;99.90
29453;DHT22;16424;50.956;5.320;2022-11-11T14:41:54;16.40;99.90
29453;DHT22;16424;50.956;5.320;2022-11-11T14:57:40;16.40;99.90
29453;DHT22;16424;50.956;5.320;2022-11-11T15:02:50;16.30;99.90
29453;DHT22;16424;50.956;5.320;2022-11-11T15:05:23;16.30;99.90
29453;DHT22;16424;50.956;5.320;2022-11-11T15:08:28;16.20;99.90
29453;DHT22;16424;50.956;5.320;2022-11-11T15:11:24;16.00;99.90
29453;DHT22;16424;50.956;5.320;2022-11-11T15:14:30;15.90;99.90
29453;DHT22;16424;50.956;5.320;2022-11-11T15:17:27;15.80;99.90
29453;DHT22;16424;50.956;5.320;2022-11-11T15:25:32;15.70;99.90
29453;DHT22;16424;50.956;5.320;2022-11-11T15:31:03;15.60;99.90
29453;DHT22;16424;50.956;5.320;2022-11-11T15:38:42;15.50;99.90
29453;DHT22;16424;50.956;5.320;2022-11-11T15:41:21;15.40;99.90
29453;DHT22;16424;50.956;5.320;2022-11-11T15:43:48;15.30;99.90
29453;DHT22;16424;50.956;5.320;2022-11-11T15:46:23;15.10;99.90
29453;DHT22;16424;50.956;5.320;2022-11-11T15:48:50;15.00;99.90
29453;DHT22;16424;50.956;5.320;2022-11-11T15:53:47;14.80;99.90
29453;DHT22;16424;50.956;5.320;2022-11-11T15:56:30;14.70;99.90
29453;DHT22;16424;50.956;5.320;2022-11-11T15:58:56;14.40;99.90
29453;DHT22;16424;50.956;5.320;2022-11-11T16:01:27;14.10;99.90
29453;DHT22;16424;50.956;5.320;2022-11-11T16:03:53;13.80;99.90
29453;DHT22;16424;50.956;5.320;2022-11-11T16:06:20;13.60;99.90
29453;DHT22;16424;50.956;5.320;2022-11-11T16:08:49;13.40;99.90
29453;DHT22;16424;50.956;5.320;2022-11-11T16:11:16;13.20;99.90
29453;DHT22;16424;50.956;5.320;2022-11-11T16:13:47;13.10;99.90
29453;DHT22;16424;50.956;5.320;2022-11-11T16:16:27;13.00;99.90
29453;DHT22;16424;50.956;5.320;2022-11-11T16:19:21;12.90;99.90
29453;DHT22;16424;50.956;5.320;2022-11-11T16:21:54;12.90;99.90
29453;DHT22;16424;50.956;5.320;2022-11-11T16:24:27;12.90;99.90
29453;DHT22;16424;50.956;5.320;2022-11-11T16:26:55;12.90;99.90
29453;DHT22;16424;50.956;5.320;2022-11-11T16:29:22;12.80;99.90
29453;DHT22;16424;50.956;5.320;2022-11-11T16:31:49;12.70;99.90
29453;DHT22;16424;50.956;5.320;2022-11-11T16:37:04;12.40;99.90
29453;DHT22;16424;50.956;5.320;2022-11-11T16:39:31;12.10;99.90
29453;DHT22;16424;50.956;5.320;2022-11-11T16:41:59;12.10;99.90
29453;DHT22;16424;50.956;5.320;2022-11-11T16:46:56;11.80;99.90
29453;DHT22;16424;50.956;5.320;2022-11-11T16:49:30;11.80;99.90
29453;DHT22;16424;50.956;5.320;2022-11-11T16:51:58;11.70;99.90
29453;DHT22;16424;50.956;5.320;2022-11-11T16:54:36;11.70;99.90
29453;DHT22;16424;50.956;5.320;2022-11-11T16:57:02;11.70;99.90
29453;DHT22;16424;50.956;5.320;2022-11-11T16:59:53;11.60;99.90
29453;DHT22;16424;50.956;5.320;2022-11-11T17:02:22;11.40;99.90
29453;DHT22;16424;50.956;5.320;2022-11-11T17:04:52;11.30;99.90
29453;DHT22;16424;50.956;5.320;2022-11-11T17:07:28;11.30;99.90
29453;DHT22;16424;50.956;5.320;2022-11-11T17:10:10;11.20;99.90
29453;DHT22;16424;50.956;5.320;2022-11-11T17:12:36;11.10;99.90
29453;DHT22;16424;50.956;5.320;2022-11-11T17:15:03;11.20;99.90
29453;DHT22;16424;50.956;5.320;2022-11-11T17:17:29;11.30;99.90
29453;DHT22;16424;50.956;5.320;2022-11-11T17:19:57;11.30;99.90
29453;DHT22;16424;50.956;5.320;2022-11-11T17:22:24;11.30;99.90
29453;DHT22;16424;50.956;5.320;2022-11-11T17:24:50;11.30;99.90
29453;DHT22;16424;50.956;5.320;2022-11-11T17:27:15;11.20;99.90
29453;DHT22;16424;50.956;5.320;2022-11-11T17:29:41;11.00;99.90
29453;DHT22;16424;50.956;5.320;2022-11-11T17:32:07;10.90;99.90
29453;DHT22;16424;50.956;5.320;2022-11-11T17:34:32;10.80;99.90
29453;DHT22;16424;50.956;5.320;2022-11-11T17:36:58;10.70;99.90
29453;DHT22;16424;50.956;5.320;2022-11-11T17:39:25;10.70;99.90
29453;DHT22;16424;50.956;5.320;2022-11-11T17:41:50;10.60;99.90
29453;DHT22;16424;50.956;5.320;2022-11-11T17:44:16;10.50;99.90
29453;DHT22;16424;50.956;5.320;2022-11-11T17:46:42;10.40;99.90
29453;DHT22;16424;50.956;5.320;2022-11-11T17:49:08;10.40;99.90
29453;DHT22;16424;50.956;5.320;2022-11-11T17:51:33;10.40;99.90
29453;DHT22;16424;50.956;5.320;2022-11-11T17:53:59;10.30;99.90
29453;DHT22;16424;50.956;5.320;2022-11-11T17:56:25;10.40;99.90
29453;DHT22;16424;50.956;5.320;2022-11-11T17:58:53;10.30;99.90
29453;DHT22;16424;50.956;5.320;2022-11-11T18:01:20;10.30;99.90
29453;DHT22;16424;50.956;5.320;2022-11-11T18:03:48;10.20;99.90
29453;DHT22;16424;50.956;5.320;2022-11-11T18:06:17;10.20;99.90
29453;DHT22;16424;50.956;5.320;2022-11-11T18:08:42;10.20;99.90
29453;DHT22;16424;50.956;5.320;2022-11-11T18:11:08;10.10;99.90
29453;DHT22;16424;50.956;5.320;2022-11-11T18:13:34;10.10;99.90
29453;DHT22;16424;50.956;5.320;2022-11-11T18:16:00;10.10;99.90
29453;DHT22;16424;50.956;5.320;2022-11-11T18:18:28;10.10;99.90
29453;DHT22;16424;50.956;5.320;2022-11-11T18:21:00;10.10;99.90
29453;DHT22;16424;50.956;5.320;2022-11-11T18:23:29;10.10;99.90
29453;DHT22;16424;50.956;5.320;2022-11-11T18:25:55;10.10;99.90
29453;DHT22;16424;50.956;5.320;2022-11-11T18:28:21;10.00;99.90
29453;DHT22;16424;50.956;5.320;2022-11-11T18:30:46;10.00;99.90
29453;DHT22;16424;50.956;5.320;2022-11-11T18:33:12;10.00;99.90
29453;DHT22;16424;50.956;5.320;2022-11-11T18:35:38;9.90;99.90
29453;DHT22;16424;50.956;5.320;2022-11-11T18:38:03;10.00;99.90
29453;DHT22;16424;50.956;5.320;2022-11-11T18:40:29;10.00;99.90